Latest Weather Observations for Narrabri

IDN60801

Issued at 2:02 pm EST Friday 28 April 2017 (issued every 30 minutes, with the page automatically refreshed every 10 minutes)

About weather observations | Map of weather stations | Latest weather observations for NSW | Other Formats
Station Details ID: 054038 Name: NARRABRI AIRPORT AWS Lat: -30.32 Lon: 149.83 Height: 229.02 m
Data from the previous 72 hours. | See also: Recent months at Narrabri
Date/Time
EST
Temp
°C
App
Temp
°C
Dew
Point
°C
Rel
Hum
%
Delta-T
°C
Wind Press
QNH
hPa
Press
MSL
hPa
Rain since
9am
mm
Dir  Spd
km/h
Gust
km/h
Spd
kts
Gust
kts
28/02:00pm 20.5 15.3 5.7 38 7.4 SSE 22 35 12 19 1018.9 1018.2 0.0
28/01:30pm 20.2 13.9 5.8 39 7.2 SSE 28 35 15 19 1019.1 1018.4 0.0
28/01:00pm 19.8 14.7 5.8 40 7.0 SSE 22 32 12 17 1019.5 1018.8 0.0
28/12:30pm 19.4 13.8 5.5 40 6.9 SSE 24 44 13 24 1019.7 1019.0 0.0
28/12:00pm 18.5 12.2 5.7 43 6.3 SSE 28 37 15 20 1020.1 1019.4 0.0
28/11:30am 17.3 10.7 5.9 47 5.6 SSE 30 41 16 22 1020.5 1019.9 0.0
28/11:00am 16.2 9.9 5.8 50 5.1 SSE 28 43 15 23 1021.0 1020.3 0.0
28/10:30am 15.3 9.0 5.8 53 4.6 SE 28 39 15 21 1021.4 1020.7 0.0
28/10:00am 14.5 8.5 5.3 54 4.4 SSE 26 39 14 21 1021.7 1021.0 0.0
28/09:30am 13.4 8.7 6.0 61 3.6 SSE 20 28 11 15 1021.6 1020.9 0.0
28/09:00am 11.3 5.5 4.3 62 3.2 SSE 24 33 13 18 1021.4 1020.7 0.0
28/08:30am 9.8 4.9 5.0 72 2.2 SSE 20 28 11 15 1021.5 1020.8 0.0
28/08:00am 8.4 3.8 3.8 73 2.0 SE 17 24 9 13 1021.3 1020.6 0.0
28/07:30am 6.9 3.8 3.5 79 1.5 SSE 9 15 5 8 1020.7 1020.1 0.0
28/07:00am 4.9 0.8 2.4 84 1.0 S 13 15 7 8 1020.4 1019.8 0.0
28/06:30am 4.6 -0.3 2.1 84 1.0 SSW 17 19 9 10 1020.0 1019.3 0.0
28/06:00am 4.4 1.6 1.8 83 1.0 W 6 9 3 5 1019.8 1019.1 0.0
28/05:30am 4.6 1.5 1.6 81 1.2 WSW 7 9 4 5 1019.6 1018.9 0.0
28/05:00am 6.3 2.7 2.8 78 1.5 SSE 11 20 6 11 1019.3 1018.6 0.0
28/04:30am 5.4 1.4 2.8 83 1.1 SSE 13 17 7 9 1019.2 1018.5 0.0
28/04:00am 4.8 1.5 2.2 83 1.1 S 9 13 5 7 1019.1 1018.4 0.0
28/03:30am 4.5 1.2 2.4 86 0.9 SSE 9 15 5 8 1019.1 1018.4 0.0
28/03:00am 3.8 0.0 1.8 87 0.8 S 11 13 6 7 1018.9 1018.2 0.0
28/02:30am 4.5 0.8 2.4 86 0.9 SSE 11 13 6 7 1019.0 1018.3 0.0
28/02:00am 4.5 2.8 1.9 83 1.0 CALM 0 6 0 3 1019.1 1018.4 0.0
28/01:30am 5.5 2.5 2.2 79 1.4 SSE 7 9 4 5 1019.4 1018.7 0.0
28/01:00am 5.5 3.5 2.2 79 1.3 NE 2 9 1 5 1019.5 1018.8 0.0
28/12:30am 6.1 2.8 2.4 77 1.5 SSE 9 11 5 6 1019.6 1018.9 0.0
28/12:00am 6.0 2.7 2.6 79 1.4 SSE 9 9 5 5 1019.8 1019.1 0.0
 
Date/Time
EST
Temp
°C
App
Temp
°C
Dew
Point
°C
Rel
Hum
%
Delta-T
°C
Wind Press
QNH
hPa
Press
MSL
hPa
Rain since
9am
mm
Dir  Spd
km/h
Gust
km/h
Spd
kts
Gust
kts
27/11:30pm 6.1 3.5 3.3 82 1.2 SSE 6 7 3 4 1019.9 1019.2 0.0
27/11:00pm 7.0 4.1 2.7 74 1.8 SE 7 9 4 5 1020.0 1019.3 0.0
27/10:30pm 7.5 4.6 2.8 72 2.0 E 7 11 4 6 1020.2 1019.6 0.0
27/10:00pm 8.4 5.4 2.2 65 2.6 SE 7 11 4 6 1020.2 1019.6 0.0
27/09:30pm 9.6 5.9 2.2 60 3.2 S 11 15 6 8 1019.9 1019.2 0.0
27/09:00pm 11.0 5.8 2.6 56 3.7 SSW 19 26 10 14 1020.0 1019.3 0.0
27/08:30pm 10.7 7.2 3.5 61 3.2 SW 11 13 6 7 1019.7 1019.0 0.0
27/08:00pm 11.4 7.7 2.4 54 3.9 SW 11 17 6 9 1019.2 1018.5 0.0
27/07:30pm 12.4 8.4 2.6 51 4.3 SW 13 17 7 9 1018.5 1017.8 0.0
27/07:00pm 13.3 8.5 2.8 49 4.7 SW 17 20 9 11 1018.3 1017.6 0.0
27/06:30pm 13.1 12.4 8.4 73 2.4 W 2 7 1 4 1017.9 1017.2 0.0
27/06:00pm 13.6 13.2 8.2 70 2.7 CALM 0 0 0 0 1017.5 1016.8 0.0
27/05:30pm 14.1 13.8 8.5 69 2.8 CALM 0 0 0 0 1017.3 1016.6 0.0
27/05:00pm 14.3 12.5 7.1 62 3.6 N 6 6 3 3 1017.0 1016.3 0.0
27/04:30pm 15.0 14.0 5.5 53 4.6 CALM 0 0 0 0 1016.7 1016.0 0.0
27/04:00pm 15.0 13.0 4.4 49 5.0 W 4 7 2 4 1016.7 1016.0 0.0
27/03:30pm 15.0 13.3 3.8 47 5.2 SSW 2 7 1 4 1016.6 1015.9 0.0
27/03:00pm 16.4 13.7 3.5 42 6.0 SW 7 11 4 6 1016.4 1015.6 0.0
27/02:30pm 16.8 14.6 5.4 47 5.5 N 6 11 3 6 1016.3 1015.5 0.0
27/02:00pm 14.6 13.5 5.1 53 4.5 CALM 0 6 0 3 1016.4 1015.6 0.0
27/01:30pm 14.3 11.8 4.0 50 4.8 NNE 6 11 3 6 1016.3 1015.5 0.0
27/01:00pm 14.0 11.3 3.8 50 4.7 N 7 9 4 5 1016.5 1015.8 0.0
27/12:30pm 14.1 11.2 4.4 52 4.5 WNW 9 15 5 8 1016.8 1016.1 0.0
27/12:00pm 14.3 11.2 3.7 49 4.9 SW 9 17 5 9 1017.1 1016.4 0.0
27/11:30am 15.1 12.1 4.2 48 5.1 SSW 9 17 5 9 1017.2 1016.5 0.0
27/11:00am 13.3 10.7 4.2 54 4.2 SE 7 19 4 10 1017.4 1016.7 0.0
27/10:30am 12.8 10.2 4.3 56 3.9 S 7 15 4 8 1017.6 1016.9 0.0
27/10:00am 12.5 9.4 5.4 62 3.3 SSW 11 17 6 9 1017.8 1017.1 0.0
27/09:30am 10.9 8.3 6.1 72 2.3 SSW 9 15 5 8 1017.7 1017.0 0.0
27/09:00am 10.0 7.5 6.5 79 1.7 SSW 9 13 5 7 1017.8 1017.1 0.2
27/08:30am 8.7 6.0 5.8 82 1.3 S 9 13 5 7 1017.6 1016.9 0.2
27/08:00am 7.7 5.0 5.5 86 1.0 SW 9 17 5 9 1017.8 1017.1 0.2
27/07:30am 6.9 5.5 5.5 91 0.6 S 2 9 1 5 1017.3 1016.6 0.2
27/07:00am 5.3 3.6 4.0 91 0.6 N 2 6 1 3 1016.9 1016.2 0.2
27/06:30am 4.5 3.0 3.0 90 0.6 CALM 0 0 0 0 1016.8 1016.1 0.2
27/06:00am 4.4 2.9 2.9 90 0.6 CALM 0 0 0 0 1016.6 1015.9 0.2
27/05:30am 4.6 3.1 2.9 89 0.7 CALM 0 0 0 0 1016.3 1015.5 0.2
27/05:00am 4.8 3.4 3.3 90 0.6 CALM 0 0 0 0 1016.1 1015.4 0.2
27/04:30am 5.0 3.6 3.3 89 0.7 CALM 0 0 0 0 1016.0 1015.3 0.2
27/04:00am 5.6 4.3 3.9 89 0.7 CALM 0 0 0 0 1015.7 1015.0 0.2
27/03:30am 5.7 4.0 3.9 88 0.8 NNE 2 6 1 3 1015.6 1014.9 0.2
27/03:00am 6.0 3.0 4.3 89 0.7 NE 9 9 5 5 1015.5 1014.8 0.2
27/02:30am 6.3 3.8 4.6 89 0.7 ENE 7 9 4 5 1015.3 1014.6 0.2
27/02:00am 6.5 3.6 4.7 88 0.8 ENE 9 11 5 6 1015.7 1015.0 0.2
27/01:30am 6.5 4.0 4.7 88 0.8 N 7 9 4 5 1015.9 1015.2 0.2
27/01:00am 7.5 6.4 5.0 84 1.1 CALM 0 4 0 2 1015.7 1015.0 0.2
27/12:30am 7.6 5.3 4.9 83 1.2 SW 6 9 3 5 1015.7 1015.0 0.2
27/12:00am 8.1 5.8 4.7 79 1.5 SW 6 9 3 5 1015.8 1015.1 0.2
 
Date/Time
EST
Temp
°C
App
Temp
°C
Dew
Point
°C
Rel
Hum
%
Delta-T
°C
Wind Press
QNH
hPa
Press
MSL
hPa
Rain since
9am
mm
Dir  Spd
km/h
Gust
km/h
Spd
kts
Gust
kts
26/11:30pm 9.4 7.1 5.8 78 1.7 SSW 7 11 4 6 1015.7 1015.0 0.2
26/11:00pm 9.0 6.7 5.7 80 1.5 SSW 7 13 4 7 1015.7 1015.0 0.2
26/10:30pm 8.5 7.1 5.6 82 1.3 E 2 7 1 4 1015.8 1015.1 0.2
26/10:00pm 8.3 5.7 5.9 85 1.1 E 9 11 5 6 1015.8 1015.1 0.2
26/09:30pm 8.5 6.7 5.3 80 1.5 WSW 4 7 2 4 1015.6 1014.9 0.2
26/09:00pm 9.6 6.9 5.6 76 1.8 WSW 9 11 5 6 1015.6 1014.9 0.2
26/08:30pm 10.9 7.5 5.9 71 2.3 S 13 19 7 10 1015.5 1014.8 0.2
26/08:00pm 11.6 7.7 5.3 65 2.9 SSW 15 20 8 11 1015.4 1014.7 0.2
26/07:30pm 12.3 7.3 4.8 60 3.5 SSW 20 28 11 15 1015.1 1014.4 0.2
26/07:00pm 13.2 7.0 4.4 55 4.1 SW 26 39 14 21 1014.6 1013.9 0.2
26/06:30pm 13.9 8.4 4.2 52 4.5 SW 22 30 12 16 1013.9 1013.2 0.2
26/06:00pm 14.2 7.5 3.9 50 4.8 SW 28 41 15 22 1013.1 1012.4 0.2
26/05:35pm 14.5 8.3 6.3 58 4.0 SW 28 46 15 25 1012.4 1011.6 0.2
26/05:30pm 14.5 7.1 6.6 59 3.9 SW 35 46 19 25 1012.3 1011.5 0.2
26/05:04pm 15.6 7.9 6.9 56 4.3 SW 37 59 20 32 1011.4 1010.7 0.2
26/05:00pm 16.0 8.0 7.5 57 4.3 SW 39 54 21 29 1011.3 1010.6 0.2
26/04:32pm 19.5 12.5 5.9 41 6.8 WSW 32 54 17 29 1010.0 1009.3 0.2
26/04:30pm 19.7 13.2 6.4 42 6.7 WSW 30 46 16 25 1009.8 1009.1 0.2
26/04:00pm 20.5 12.7 4.9 36 7.7 W 35 50 19 27 1009.4 1008.7 0.2
26/03:30pm 21.6 14.6 6.7 38 7.7 W 33 52 18 28 1009.2 1008.5 0.2
26/03:13pm 21.6 14.5 6.3 37 7.8 WSW 33 52 18 28 1009.1 1008.4 0.2
26/03:00pm 21.1 14.4 7.3 41 7.2 WSW 32 46 17 25 1009.0 1008.3 0.2
26/02:30pm 20.8 14.3 8.1 44 6.7 W 32 48 17 26 1008.8 1008.0 0.2
26/02:26pm 20.9 14.7 7.9 43 6.8 W 30 48 16 26 1008.8 1008.0 0.2
26/02:00pm 22.3 16.9 9.5 44 7.0 W 28 41 15 22 1008.6 1007.8 0.2
26/01:30pm 21.5 16.5 10.9 51 5.9 W 28 37 15 20 1008.9 1008.2 0.2
26/01:17pm 21.4 15.9 10.6 50 6.0 W 30 50 16 27 1008.7 1007.9 0.2
26/01:00pm 20.7 15.4 11.1 54 5.3 WNW 30 43 16 23 1008.7 1007.9 0.2
26/12:30pm 20.6 16.6 14.0 66 3.9 WSW 28 43 15 23 1009.2 1008.5 0.2
26/12:00pm 19.6 15.8 13.5 68 3.5 WSW 26 35 14 19 1009.6 1008.9 0.2
26/11:30am 20.0 17.8 16.8 82 2.0 WNW 24 35 13 19 1010.0 1009.3 0.2
26/11:28am 19.5 16.9 16.0 80 2.1 WNW 24 35 13 19 1010.0 1009.3 0.2
26/11:00am 18.9 17.1 16.0 83 1.7 NW 20 28 11 15 1010.3 1009.6 0.2
26/10:30am 18.9 17.4 16.7 87 1.3 NW 20 28 11 15 1010.5 1009.8 0.2
26/10:00am 18.4 16.6 16.9 91 0.9 NNW 22 28 12 15 1011.0 1010.3 0.2
26/09:30am 17.5 15.3 16.0 91 0.9 NNW 22 30 12 16 1011.3 1010.6 0.0
26/09:14am 17.5 15.7 16.0 91 0.9 NNW 20 26 11 14 1011.4 1010.7 0.0
26/09:00am 17.3 15.4 15.8 91 0.9 NNW 20 28 11 15 1011.5 1010.8 9.0
26/08:52am 17.3 15.4 15.8 91 0.9 NNW 20 26 11 14 1011.5 1010.8 9.0
26/08:43am 17.3 15.4 15.8 91 0.9 NNW 20 26 11 14 1011.8 1011.0 9.0
26/08:30am 17.2 15.5 15.7 91 0.9 NNW 19 26 10 14 1011.5 1010.8 9.0
26/08:00am 17.2 15.9 15.7 91 0.9 NNW 17 24 9 13 1011.5 1010.8 8.8
26/07:30am 17.1 16.1 15.6 91 0.9 NW 15 22 8 12 1011.3 1010.6 8.4
26/07:00am 17.1 15.6 15.4 90 1.0 NNW 17 22 9 12 1011.3 1010.6 8.2
26/06:54am 17.1 15.6 15.4 90 1.0 NNW 17 24 9 13 1011.3 1010.6 8.2
26/06:30am 17.1 15.6 15.4 90 1.0 NNW 17 22 9 12 1011.1 1010.4 8.0
26/06:00am 17.0 15.1 15.3 90 1.0 NNW 19 24 10 13 1011.2 1010.5 8.0
26/05:59am 17.0 15.1 15.3 90 1.0 NNW 19 24 10 13 1011.2 1010.5 8.0
26/05:40am 17.0 15.1 15.2 89 1.1 NNW 19 24 10 13 1011.2 1010.5 7.0
26/05:30am 17.2 15.7 15.2 88 1.2 NNW 17 26 9 14 1011.2 1010.5 5.0
26/05:00am 17.3 15.7 15.1 87 1.3 N 17 26 9 14 1011.3 1010.6 4.4
26/04:30am 17.3 15.7 15.1 87 1.3 N 17 24 9 13 1011.2 1010.5 4.4
26/04:00am 17.3 16.5 15.1 87 1.3 N 13 19 7 10 1011.4 1010.7 4.4
26/03:30am 17.2 15.6 15.0 87 1.3 N 17 22 9 12 1011.9 1011.1 4.4
26/03:00am 17.2 15.2 15.0 87 1.3 NNW 19 26 10 14 1012.1 1011.3 4.4
26/02:30am 17.3 16.2 15.3 88 1.2 N 15 20 8 11 1012.1 1011.3 4.4
26/02:00am 17.5 16.0 15.3 87 1.3 N 17 22 9 12 1012.3 1011.5 4.4
26/01:30am 17.4 15.9 15.2 87 1.3 NNW 17 24 9 13 1012.6 1011.8 4.4
26/01:00am 17.6 16.1 15.4 87 1.3 N 17 22 9 12 1012.5 1011.7 4.4
26/12:30am 17.4 15.6 15.4 88 1.2 N 19 24 10 13 1012.6 1011.8 4.4
26/12:00am 17.6 15.6 15.6 88 1.2 N 20 26 11 14 1013.1 1012.4 4.4
 
Date/Time
EST
Temp
°C
App
Temp
°C
Dew
Point
°C
Rel
Hum
%
Delta-T
°C
Wind Press
QNH
hPa
Press
MSL
hPa
Rain since
9am
mm
Dir  Spd
km/h
Gust
km/h
Spd
kts
Gust
kts
25/11:54pm 17.6 15.6 15.4 87 1.3 N 20 26 11 14 1013.1 1012.4 4.4
25/11:30pm 17.8 15.4 15.4 86 1.4 N 22 30 12 16 1013.5 1012.8 4.2
25/11:00pm 18.1 16.1 15.5 85 1.5 N 20 24 11 13 1013.9 1013.2 4.0
25/10:30pm 18.3 16.7 15.9 86 1.4 N 19 26 10 14 1013.9 1013.2 4.0
25/10:00pm 18.2 17.3 15.8 86 1.4 N 15 19 8 10 1013.8 1013.1 4.0
25/09:30pm 18.3 16.7 15.9 86 1.4 NNE 19 26 10 14 1013.5 1012.8 4.0
25/09:00pm 18.3 17.0 15.9 86 1.4 N 17 24 9 13 1013.7 1013.0 4.0
25/08:30pm 18.4 16.7 16.2 87 1.3 NNE 20 26 11 14 1013.9 1013.2 4.0
25/08:00pm 18.4 16.9 16.4 88 1.2 NNE 19 22 10 12 1013.7 1013.0 4.0
25/07:30pm 18.2 18.1 16.0 87 1.3 NNE 11 15 6 8 1013.8 1013.1 4.0
25/07:00pm 18.5 18.2 16.5 88 1.2 NE 13 17 7 9 1013.6 1012.9 4.0
25/06:30pm 18.5 18.5 16.3 87 1.3 NE 11 15 6 8 1013.5 1012.8 4.0
25/06:01pm 18.7 19.7 16.3 86 1.4 ENE 6 11 3 6 1013.5 1012.8 3.8
25/06:00pm 18.7 19.7 16.3 86 1.4 ENE 6 11 3 6 1013.5 1012.8 3.8
25/05:43pm 19.0 20.3 16.2 84 1.7 WSW 4 9 2 5 1013.6 1012.9 3.4
25/05:30pm 19.0 19.7 16.0 83 1.8 WSW 7 11 4 6 1013.5 1012.8 2.8
25/05:00pm 19.1 17.3 16.1 83 1.8 WSW 20 28 11 15 1013.3 1012.6 2.6
25/04:30pm 20.1 18.0 16.3 79 2.3 WSW 22 32 12 17 1012.4 1011.6 2.0
25/04:17pm 19.7 16.9 16.3 81 2.1 W 26 37 14 20 1012.3 1011.5 2.0
25/04:06pm 19.9 15.1 15.7 77 2.5 W 35 52 19 28 1012.1 1011.3 1.8
25/04:00pm 20.6 16.2 15.2 71 3.2 WNW 32 52 17 28 1011.9 1011.1 1.0
25/03:58pm 21.3 17.3 14.0 63 4.3 NW 28 52 15 28 1011.5 1010.8 0.6
25/03:57pm 21.7 18.2 14.4 63 4.3 NW 26 44 14 24 1011.5 1010.8 0.6
25/03:30pm 27.1 21.8 11.2 37 9.1 N 30 39 16 21 1010.6 1009.9 0.0
25/03:00pm 26.8 21.0 10.9 37 9.1 N 32 41 17 22 1011.0 1010.3 0.0
25/02:30pm 27.7 22.2 11.7 37 9.3 N 32 43 17 23 1011.3 1010.6 0.0

Other Formats:

Comma delimited format used in spreadsheet applications
http://www.bom.gov.au/fwo/IDN60801/IDN60801.95734.axf

JavaScript Object Notation format (JSON) in row-major order
http://www.bom.gov.au/fwo/IDN60801/IDN60801.95734.json